<?xml version="1.0" encoding="UTF-8" standalone="no" ?>
<gpx xmlns="http://www.topografix.com/GPX/1/1" xmlns:xsi="http://www.w3.org/2001/XMLSchema-instance" xsi:schemaLocation="http://www.topografix.com/GPX/1/1 http://www.topografix.com/GPX/1/1/gpx.xsd" version="1.1" creator="VisuGPX - https://www.visugpx.com">
  <metadata>
    <name>Boucle à Vaux-sur-Aure</name>
    <desc><![CDATA[[titre]Vaux-sur-Aure[/titre]
Cette boucle de randonnée d’environ 8,1 kilomètres débute depuis le paisible village de [b]Vaux-sur-Aure[/b], dans le [i]Calvados[/i], à proximité de [b]Bayeux [/b]et des plages du débarquement. Le parcours, d’une durée d’environ 2h20, est remarquablement plat avec un dénivelé positif d’à peine 11 mètres (point culminant à seulement 68 mètres d’altitude). Ce chiffre indique un itinéraire très roulant, se déroulant presque intégralement dans la vallée de l’[i]Aure[/i]. Vous cheminerez entre prairies, haies bocagères et petits ponts, pour une promenade champêtre et reposante, dénuée de toute difficulté. Ce parcours est idéal pour une matinée de détente en pleine nature normande.]]></desc>
  </metadata>
  <trk>
    <name><![CDATA[Vaux-sur-Aure]]></name>
    <trkseg>
      <trkpt lat="49.30488" lon="-0.70455">
        <ele>53.97</ele>
        <time>2026-05-15T08:51:05Z</time>
      </trkpt>
      <trkpt lat="49.30487" lon="-0.70458">
        <ele>53.97</ele>
        <time>2026-05-15T08:51:06Z</time>
      </trkpt>
      <trkpt lat="49.30477" lon="-0.70468">
        <ele>55.41</ele>
        <time>2026-05-15T08:51:20Z</time>
      </trkpt>
      <trkpt lat="49.30476" lon="-0.70468">
        <ele>58.78</ele>
        <time>2026-05-15T08:51:26Z</time>
      </trkpt>
      <trkpt lat="49.30474" lon="-0.70475">
        <ele>61.66</ele>
        <time>2026-05-15T08:51:35Z</time>
      </trkpt>
      <trkpt lat="49.30467" lon="-0.70484">
        <ele>62.62</ele>
        <time>2026-05-15T08:51:54Z</time>
      </trkpt>
      <trkpt lat="49.30459" lon="-0.70486">
        <ele>62.62</ele>
        <time>2026-05-15T08:52:23Z</time>
      </trkpt>
      <trkpt lat="49.3044" lon="-0.70495">
        <ele>62.14</ele>
        <time>2026-05-15T08:52:44Z</time>
      </trkpt>
      <trkpt lat="49.30436" lon="-0.70515">
        <ele>60.7</ele>
        <time>2026-05-15T08:53:03Z</time>
      </trkpt>
      <trkpt lat="49.30437" lon="-0.70531">
        <ele>60.22</ele>
        <time>2026-05-15T08:53:19Z</time>
      </trkpt>
      <trkpt lat="49.30443" lon="-0.70539">
        <ele>59.74</ele>
        <time>2026-05-15T08:53:36Z</time>
      </trkpt>
      <trkpt lat="49.30445" lon="-0.70538">
        <ele>59.74</ele>
        <time>2026-05-15T08:53:58Z</time>
      </trkpt>
      <trkpt lat="49.30449" lon="-0.70546">
        <ele>59.26</ele>
        <time>2026-05-15T08:54:13Z</time>
      </trkpt>
      <trkpt lat="49.30455" lon="-0.70564">
        <ele>58.78</ele>
        <time>2026-05-15T08:54:31Z</time>
      </trkpt>
      <trkpt lat="49.30464" lon="-0.7058">
        <ele>58.78</ele>
        <time>2026-05-15T08:54:50Z</time>
      </trkpt>
      <trkpt lat="49.30469" lon="-0.70598">
        <ele>58.3</ele>
        <time>2026-05-15T08:55:07Z</time>
      </trkpt>
      <trkpt lat="49.30468" lon="-0.70621">
        <ele>58.3</ele>
        <time>2026-05-15T08:55:26Z</time>
      </trkpt>
      <trkpt lat="49.30472" lon="-0.70648">
        <ele>57.82</ele>
        <time>2026-05-15T08:55:49Z</time>
      </trkpt>
      <trkpt lat="49.30482" lon="-0.70675">
        <ele>56.86</ele>
        <time>2026-05-15T08:56:09Z</time>
      </trkpt>
      <trkpt lat="49.30482" lon="-0.70702">
        <ele>56.86</ele>
        <time>2026-05-15T08:56:25Z</time>
      </trkpt>
      <trkpt lat="49.30486" lon="-0.7072">
        <ele>56.37</ele>
        <time>2026-05-15T08:56:44Z</time>
      </trkpt>
      <trkpt lat="49.30484" lon="-0.70732">
        <ele>56.37</ele>
        <time>2026-05-15T08:57:01Z</time>
      </trkpt>
      <trkpt lat="49.30484" lon="-0.70734">
        <ele>56.37</ele>
        <time>2026-05-15T08:57:02Z</time>
      </trkpt>
      <trkpt lat="49.30482" lon="-0.70749">
        <ele>55.89</ele>
        <time>2026-05-15T08:57:19Z</time>
      </trkpt>
      <trkpt lat="49.30473" lon="-0.70766">
        <ele>55.89</ele>
        <time>2026-05-15T08:57:34Z</time>
      </trkpt>
      <trkpt lat="49.30458" lon="-0.70789">
        <ele>55.41</ele>
        <time>2026-05-15T08:57:52Z</time>
      </trkpt>
      <trkpt lat="49.30444" lon="-0.70812">
        <ele>56.86</ele>
        <time>2026-05-15T08:58:11Z</time>
      </trkpt>
      <trkpt lat="49.3043" lon="-0.70834">
        <ele>57.34</ele>
        <time>2026-05-15T08:58:30Z</time>
      </trkpt>
      <trkpt lat="49.30417" lon="-0.70859">
        <ele>57.34</ele>
        <time>2026-05-15T08:58:52Z</time>
      </trkpt>
      <trkpt lat="49.30404" lon="-0.70864">
        <ele>57.82</ele>
        <time>2026-05-15T08:59:07Z</time>
      </trkpt>
      <trkpt lat="49.30388" lon="-0.7086">
        <ele>57.82</ele>
        <time>2026-05-15T08:59:23Z</time>
      </trkpt>
      <trkpt lat="49.30371" lon="-0.70858">
        <ele>57.82</ele>
        <time>2026-05-15T08:59:39Z</time>
      </trkpt>
      <trkpt lat="49.30357" lon="-0.70857">
        <ele>57.82</ele>
        <time>2026-05-15T08:59:54Z</time>
      </trkpt>
      <trkpt lat="49.30338" lon="-0.70849">
        <ele>58.3</ele>
        <time>2026-05-15T09:00:11Z</time>
      </trkpt>
      <trkpt lat="49.30332" lon="-0.70843">
        <ele>57.82</ele>
        <time>2026-05-15T09:00:32Z</time>
      </trkpt>
      <trkpt lat="49.30324" lon="-0.70843">
        <ele>57.34</ele>
        <time>2026-05-15T09:00:52Z</time>
      </trkpt>
      <trkpt lat="49.30306" lon="-0.70842">
        <ele>57.82</ele>
        <time>2026-05-15T09:01:09Z</time>
      </trkpt>
      <trkpt lat="49.30298" lon="-0.70842">
        <ele>57.34</ele>
        <time>2026-05-15T09:01:16Z</time>
      </trkpt>
      <trkpt lat="49.30277" lon="-0.70843">
        <ele>57.34</ele>
        <time>2026-05-15T09:01:34Z</time>
      </trkpt>
      <trkpt lat="49.30271" lon="-0.70842">
        <ele>57.34</ele>
        <time>2026-05-15T09:01:39Z</time>
      </trkpt>
      <trkpt lat="49.30244" lon="-0.70844">
        <ele>56.86</ele>
        <time>2026-05-15T09:02:00Z</time>
      </trkpt>
      <trkpt lat="49.30228" lon="-0.70843">
        <ele>55.41</ele>
        <time>2026-05-15T09:02:13Z</time>
      </trkpt>
      <trkpt lat="49.30223" lon="-0.70841">
        <ele>55.41</ele>
        <time>2026-05-15T09:02:18Z</time>
      </trkpt>
      <trkpt lat="49.30217" lon="-0.70837">
        <ele>55.41</ele>
        <time>2026-05-15T09:02:24Z</time>
      </trkpt>
      <trkpt lat="49.30203" lon="-0.70818">
        <ele>53.97</ele>
        <time>2026-05-15T09:02:41Z</time>
      </trkpt>
      <trkpt lat="49.30199" lon="-0.70816">
        <ele>54.45</ele>
        <time>2026-05-15T09:02:45Z</time>
      </trkpt>
      <trkpt lat="49.30189" lon="-0.70802">
        <ele>53.97</ele>
        <time>2026-05-15T09:02:58Z</time>
      </trkpt>
      <trkpt lat="49.30176" lon="-0.70787">
        <ele>53.97</ele>
        <time>2026-05-15T09:03:14Z</time>
      </trkpt>
      <trkpt lat="49.30173" lon="-0.70785">
        <ele>53.97</ele>
        <time>2026-05-15T09:03:17Z</time>
      </trkpt>
      <trkpt lat="49.30158" lon="-0.70777">
        <ele>53.49</ele>
        <time>2026-05-15T09:03:31Z</time>
      </trkpt>
      <trkpt lat="49.30148" lon="-0.70777">
        <ele>53.49</ele>
        <time>2026-05-15T09:03:44Z</time>
      </trkpt>
      <trkpt lat="49.30137" lon="-0.70783">
        <ele>53.01</ele>
        <time>2026-05-15T09:03:59Z</time>
      </trkpt>
      <trkpt lat="49.30117" lon="-0.70779">
        <ele>53.97</ele>
        <time>2026-05-15T09:04:18Z</time>
      </trkpt>
      <trkpt lat="49.30098" lon="-0.70775">
        <ele>53.49</ele>
        <time>2026-05-15T09:04:35Z</time>
      </trkpt>
      <trkpt lat="49.30086" lon="-0.70774">
        <ele>53.49</ele>
        <time>2026-05-15T09:04:49Z</time>
      </trkpt>
      <trkpt lat="49.30081" lon="-0.70771">
        <ele>53.01</ele>
        <time>2026-05-15T09:05:05Z</time>
      </trkpt>
      <trkpt lat="49.3007" lon="-0.70775">
        <ele>52.53</ele>
        <time>2026-05-15T09:05:24Z</time>
      </trkpt>
      <trkpt lat="49.30052" lon="-0.70774">
        <ele>53.01</ele>
        <time>2026-05-15T09:05:42Z</time>
      </trkpt>
      <trkpt lat="49.30034" lon="-0.70773">
        <ele>53.01</ele>
        <time>2026-05-15T09:06:00Z</time>
      </trkpt>
      <trkpt lat="49.30016" lon="-0.70773">
        <ele>53.97</ele>
        <time>2026-05-15T09:06:16Z</time>
      </trkpt>
      <trkpt lat="49.29998" lon="-0.70769">
        <ele>53.97</ele>
        <time>2026-05-15T09:06:35Z</time>
      </trkpt>
      <trkpt lat="49.29977" lon="-0.70765">
        <ele>53.97</ele>
        <time>2026-05-15T09:06:53Z</time>
      </trkpt>
      <trkpt lat="49.29961" lon="-0.70762">
        <ele>54.45</ele>
        <time>2026-05-15T09:07:07Z</time>
      </trkpt>
      <trkpt lat="49.29941" lon="-0.70758">
        <ele>54.45</ele>
        <time>2026-05-15T09:07:25Z</time>
      </trkpt>
      <trkpt lat="49.29923" lon="-0.70757">
        <ele>54.93</ele>
        <time>2026-05-15T09:07:41Z</time>
      </trkpt>
      <trkpt lat="49.29907" lon="-0.70754">
        <ele>54.93</ele>
        <time>2026-05-15T09:07:57Z</time>
      </trkpt>
      <trkpt lat="49.29892" lon="-0.70752">
        <ele>55.41</ele>
        <time>2026-05-15T09:08:13Z</time>
      </trkpt>
      <trkpt lat="49.29873" lon="-0.70749">
        <ele>55.41</ele>
        <time>2026-05-15T09:08:30Z</time>
      </trkpt>
      <trkpt lat="49.29862" lon="-0.70747">
        <ele>55.89</ele>
        <time>2026-05-15T09:08:40Z</time>
      </trkpt>
      <trkpt lat="49.29845" lon="-0.70747">
        <ele>55.89</ele>
        <time>2026-05-15T09:08:56Z</time>
      </trkpt>
      <trkpt lat="49.29829" lon="-0.70742">
        <ele>55.89</ele>
        <time>2026-05-15T09:09:15Z</time>
      </trkpt>
      <trkpt lat="49.29818" lon="-0.70739">
        <ele>55.89</ele>
        <time>2026-05-15T09:09:30Z</time>
      </trkpt>
      <trkpt lat="49.29812" lon="-0.70744">
        <ele>55.89</ele>
        <time>2026-05-15T09:09:49Z</time>
      </trkpt>
      <trkpt lat="49.29798" lon="-0.70735">
        <ele>55.89</ele>
        <time>2026-05-15T09:10:11Z</time>
      </trkpt>
      <trkpt lat="49.29791" lon="-0.70732">
        <ele>55.89</ele>
        <time>2026-05-15T09:10:17Z</time>
      </trkpt>
      <trkpt lat="49.29775" lon="-0.70728">
        <ele>55.89</ele>
        <time>2026-05-15T09:10:34Z</time>
      </trkpt>
      <trkpt lat="49.29758" lon="-0.70726">
        <ele>55.41</ele>
        <time>2026-05-15T09:10:51Z</time>
      </trkpt>
      <trkpt lat="49.29742" lon="-0.7072">
        <ele>55.41</ele>
        <time>2026-05-15T09:11:07Z</time>
      </trkpt>
      <trkpt lat="49.29722" lon="-0.70714">
        <ele>55.41</ele>
        <time>2026-05-15T09:11:22Z</time>
      </trkpt>
      <trkpt lat="49.29703" lon="-0.70711">
        <ele>55.41</ele>
        <time>2026-05-15T09:11:39Z</time>
      </trkpt>
      <trkpt lat="49.29685" lon="-0.70706">
        <ele>55.41</ele>
        <time>2026-05-15T09:11:54Z</time>
      </trkpt>
      <trkpt lat="49.29667" lon="-0.707">
        <ele>55.41</ele>
        <time>2026-05-15T09:12:11Z</time>
      </trkpt>
      <trkpt lat="49.29648" lon="-0.70696">
        <ele>55.89</ele>
        <time>2026-05-15T09:12:29Z</time>
      </trkpt>
      <trkpt lat="49.29634" lon="-0.70692">
        <ele>56.37</ele>
        <time>2026-05-15T09:12:45Z</time>
      </trkpt>
      <trkpt lat="49.2962" lon="-0.70691">
        <ele>56.37</ele>
        <time>2026-05-15T09:13:02Z</time>
      </trkpt>
      <trkpt lat="49.296" lon="-0.70688">
        <ele>55.89</ele>
        <time>2026-05-15T09:13:22Z</time>
      </trkpt>
      <trkpt lat="49.29585" lon="-0.70687">
        <ele>56.37</ele>
        <time>2026-05-15T09:13:38Z</time>
      </trkpt>
      <trkpt lat="49.29567" lon="-0.70686">
        <ele>56.86</ele>
        <time>2026-05-15T09:13:55Z</time>
      </trkpt>
      <trkpt lat="49.29552" lon="-0.70684">
        <ele>56.86</ele>
        <time>2026-05-15T09:14:10Z</time>
      </trkpt>
      <trkpt lat="49.29535" lon="-0.7068">
        <ele>57.34</ele>
        <time>2026-05-15T09:14:25Z</time>
      </trkpt>
      <trkpt lat="49.2952" lon="-0.70676">
        <ele>57.82</ele>
        <time>2026-05-15T09:14:41Z</time>
      </trkpt>
      <trkpt lat="49.29507" lon="-0.70675">
        <ele>57.82</ele>
        <time>2026-05-15T09:14:56Z</time>
      </trkpt>
      <trkpt lat="49.29493" lon="-0.70672">
        <ele>57.82</ele>
        <time>2026-05-15T09:15:10Z</time>
      </trkpt>
      <trkpt lat="49.29481" lon="-0.70671">
        <ele>58.3</ele>
        <time>2026-05-15T09:15:24Z</time>
      </trkpt>
      <trkpt lat="49.2947" lon="-0.70667">
        <ele>58.3</ele>
        <time>2026-05-15T09:15:38Z</time>
      </trkpt>
      <trkpt lat="49.29452" lon="-0.70668">
        <ele>58.3</ele>
        <time>2026-05-15T09:15:55Z</time>
      </trkpt>
      <trkpt lat="49.2943" lon="-0.70665">
        <ele>58.78</ele>
        <time>2026-05-15T09:16:14Z</time>
      </trkpt>
      <trkpt lat="49.29413" lon="-0.70667">
        <ele>59.26</ele>
        <time>2026-05-15T09:16:31Z</time>
      </trkpt>
      <trkpt lat="49.29401" lon="-0.70666">
        <ele>59.74</ele>
        <time>2026-05-15T09:16:44Z</time>
      </trkpt>
      <trkpt lat="49.29383" lon="-0.70664">
        <ele>59.74</ele>
        <time>2026-05-15T09:17:03Z</time>
      </trkpt>
      <trkpt lat="49.29365" lon="-0.70664">
        <ele>60.22</ele>
        <time>2026-05-15T09:17:18Z</time>
      </trkpt>
      <trkpt lat="49.29345" lon="-0.70661">
        <ele>60.7</ele>
        <time>2026-05-15T09:17:35Z</time>
      </trkpt>
      <trkpt lat="49.2933" lon="-0.7066">
        <ele>60.7</ele>
        <time>2026-05-15T09:17:52Z</time>
      </trkpt>
      <trkpt lat="49.29318" lon="-0.70654">
        <ele>61.18</ele>
        <time>2026-05-15T09:18:04Z</time>
      </trkpt>
      <trkpt lat="49.29308" lon="-0.70652">
        <ele>61.18</ele>
        <time>2026-05-15T09:18:13Z</time>
      </trkpt>
      <trkpt lat="49.29296" lon="-0.70651">
        <ele>61.66</ele>
        <time>2026-05-15T09:18:28Z</time>
      </trkpt>
      <trkpt lat="49.29289" lon="-0.70653">
        <ele>61.18</ele>
        <time>2026-05-15T09:18:41Z</time>
      </trkpt>
      <trkpt lat="49.29279" lon="-0.70651">
        <ele>61.66</ele>
        <time>2026-05-15T09:18:54Z</time>
      </trkpt>
      <trkpt lat="49.29264" lon="-0.70653">
        <ele>61.66</ele>
        <time>2026-05-15T09:19:10Z</time>
      </trkpt>
      <trkpt lat="49.29247" lon="-0.70655">
        <ele>62.14</ele>
        <time>2026-05-15T09:19:27Z</time>
      </trkpt>
      <trkpt lat="49.2923" lon="-0.70657">
        <ele>61.66</ele>
        <time>2026-05-15T09:19:43Z</time>
      </trkpt>
      <trkpt lat="49.29229" lon="-0.70658">
        <ele>61.66</ele>
        <time>2026-05-15T09:19:44Z</time>
      </trkpt>
      <trkpt lat="49.29222" lon="-0.70659">
        <ele>62.14</ele>
        <time>2026-05-15T09:19:52Z</time>
      </trkpt>
      <trkpt lat="49.2921" lon="-0.70659">
        <ele>62.14</ele>
        <time>2026-05-15T09:20:06Z</time>
      </trkpt>
      <trkpt lat="49.29201" lon="-0.70663">
        <ele>62.14</ele>
        <time>2026-05-15T09:20:20Z</time>
      </trkpt>
      <trkpt lat="49.29188" lon="-0.70668">
        <ele>62.14</ele>
        <time>2026-05-15T09:20:33Z</time>
      </trkpt>
      <trkpt lat="49.29171" lon="-0.70674">
        <ele>62.62</ele>
        <time>2026-05-15T09:20:49Z</time>
      </trkpt>
      <trkpt lat="49.29153" lon="-0.70676">
        <ele>62.62</ele>
        <time>2026-05-15T09:21:07Z</time>
      </trkpt>
      <trkpt lat="49.29136" lon="-0.70678">
        <ele>63.1</ele>
        <time>2026-05-15T09:21:23Z</time>
      </trkpt>
      <trkpt lat="49.29134" lon="-0.70677">
        <ele>63.1</ele>
        <time>2026-05-15T09:21:26Z</time>
      </trkpt>
      <trkpt lat="49.29132" lon="-0.70678">
        <ele>63.1</ele>
        <time>2026-05-15T09:21:28Z</time>
      </trkpt>
      <trkpt lat="49.29128" lon="-0.70677">
        <ele>63.1</ele>
        <time>2026-05-15T09:21:31Z</time>
      </trkpt>
      <trkpt lat="49.29118" lon="-0.70679">
        <ele>63.1</ele>
        <time>2026-05-15T09:21:42Z</time>
      </trkpt>
      <trkpt lat="49.29114" lon="-0.70682">
        <ele>63.1</ele>
        <time>2026-05-15T09:21:59Z</time>
      </trkpt>
      <trkpt lat="49.29112" lon="-0.70682">
        <ele>63.1</ele>
        <time>2026-05-15T09:22:01Z</time>
      </trkpt>
      <trkpt lat="49.29094" lon="-0.70679">
        <ele>63.1</ele>
        <time>2026-05-15T09:22:18Z</time>
      </trkpt>
      <trkpt lat="49.29086" lon="-0.7068">
        <ele>63.58</ele>
        <time>2026-05-15T09:22:26Z</time>
      </trkpt>
      <trkpt lat="49.29069" lon="-0.70682">
        <ele>63.58</ele>
        <time>2026-05-15T09:22:43Z</time>
      </trkpt>
      <trkpt lat="49.29067" lon="-0.70684">
        <ele>63.58</ele>
        <time>2026-05-15T09:22:46Z</time>
      </trkpt>
      <trkpt lat="49.29064" lon="-0.70708">
        <ele>63.58</ele>
        <time>2026-05-15T09:23:01Z</time>
      </trkpt>
      <trkpt lat="49.29066" lon="-0.70734">
        <ele>63.58</ele>
        <time>2026-05-15T09:23:19Z</time>
      </trkpt>
      <trkpt lat="49.29067" lon="-0.70765">
        <ele>64.07</ele>
        <time>2026-05-15T09:23:38Z</time>
      </trkpt>
      <trkpt lat="49.29069" lon="-0.70791">
        <ele>64.07</ele>
        <time>2026-05-15T09:23:53Z</time>
      </trkpt>
      <trkpt lat="49.29071" lon="-0.70821">
        <ele>64.07</ele>
        <time>2026-05-15T09:24:11Z</time>
      </trkpt>
      <trkpt lat="49.2907" lon="-0.70839">
        <ele>64.07</ele>
        <time>2026-05-15T09:24:22Z</time>
      </trkpt>
      <trkpt lat="49.29071" lon="-0.70869">
        <ele>64.07</ele>
        <time>2026-05-15T09:24:41Z</time>
      </trkpt>
      <trkpt lat="49.29072" lon="-0.70886">
        <ele>64.55</ele>
        <time>2026-05-15T09:24:51Z</time>
      </trkpt>
      <trkpt lat="49.29071" lon="-0.70917">
        <ele>64.55</ele>
        <time>2026-05-15T09:25:10Z</time>
      </trkpt>
      <trkpt lat="49.2907" lon="-0.70929">
        <ele>65.03</ele>
        <time>2026-05-15T09:25:17Z</time>
      </trkpt>
      <trkpt lat="49.29069" lon="-0.70945">
        <ele>65.03</ele>
        <time>2026-05-15T09:25:27Z</time>
      </trkpt>
      <trkpt lat="49.2907" lon="-0.70977">
        <ele>65.03</ele>
        <time>2026-05-15T09:25:48Z</time>
      </trkpt>
      <trkpt lat="49.29072" lon="-0.70979">
        <ele>65.03</ele>
        <time>2026-05-15T09:26:04Z</time>
      </trkpt>
      <trkpt lat="49.2907" lon="-0.70988">
        <ele>65.51</ele>
        <time>2026-05-15T09:26:18Z</time>
      </trkpt>
      <trkpt lat="49.29067" lon="-0.71013">
        <ele>65.99</ele>
        <time>2026-05-15T09:26:34Z</time>
      </trkpt>
      <trkpt lat="49.29063" lon="-0.71035">
        <ele>65.99</ele>
        <time>2026-05-15T09:26:49Z</time>
      </trkpt>
      <trkpt lat="49.29062" lon="-0.71042">
        <ele>66.47</ele>
        <time>2026-05-15T09:26:54Z</time>
      </trkpt>
      <trkpt lat="49.29062" lon="-0.71048">
        <ele>66.47</ele>
        <time>2026-05-15T09:26:58Z</time>
      </trkpt>
      <trkpt lat="49.29057" lon="-0.71071">
        <ele>66.47</ele>
        <time>2026-05-15T09:27:15Z</time>
      </trkpt>
      <trkpt lat="49.29052" lon="-0.71087">
        <ele>66.47</ele>
        <time>2026-05-15T09:27:28Z</time>
      </trkpt>
      <trkpt lat="49.2905" lon="-0.71111">
        <ele>66.47</ele>
        <time>2026-05-15T09:27:46Z</time>
      </trkpt>
      <trkpt lat="49.29047" lon="-0.71131">
        <ele>66.47</ele>
        <time>2026-05-15T09:27:58Z</time>
      </trkpt>
      <trkpt lat="49.29044" lon="-0.71168">
        <ele>66.95</ele>
        <time>2026-05-15T09:28:19Z</time>
      </trkpt>
      <trkpt lat="49.29041" lon="-0.71191">
        <ele>66.95</ele>
        <time>2026-05-15T09:28:35Z</time>
      </trkpt>
      <trkpt lat="49.29038" lon="-0.71214">
        <ele>67.43</ele>
        <time>2026-05-15T09:28:51Z</time>
      </trkpt>
      <trkpt lat="49.29033" lon="-0.71243">
        <ele>66.95</ele>
        <time>2026-05-15T09:29:07Z</time>
      </trkpt>
      <trkpt lat="49.29029" lon="-0.71273">
        <ele>67.43</ele>
        <time>2026-05-15T09:29:27Z</time>
      </trkpt>
      <trkpt lat="49.29027" lon="-0.71298">
        <ele>67.43</ele>
        <time>2026-05-15T09:29:45Z</time>
      </trkpt>
      <trkpt lat="49.29023" lon="-0.71321">
        <ele>67.91</ele>
        <time>2026-05-15T09:30:00Z</time>
      </trkpt>
      <trkpt lat="49.29021" lon="-0.71348">
        <ele>67.91</ele>
        <time>2026-05-15T09:30:17Z</time>
      </trkpt>
      <trkpt lat="49.29028" lon="-0.71361">
        <ele>67.91</ele>
        <time>2026-05-15T09:30:31Z</time>
      </trkpt>
      <trkpt lat="49.29039" lon="-0.71379">
        <ele>67.91</ele>
        <time>2026-05-15T09:30:48Z</time>
      </trkpt>
      <trkpt lat="49.29052" lon="-0.71395">
        <ele>67.91</ele>
        <time>2026-05-15T09:31:04Z</time>
      </trkpt>
      <trkpt lat="49.29063" lon="-0.7141">
        <ele>67.91</ele>
        <time>2026-05-15T09:31:17Z</time>
      </trkpt>
      <trkpt lat="49.29079" lon="-0.71427">
        <ele>66.47</ele>
        <time>2026-05-15T09:31:34Z</time>
      </trkpt>
      <trkpt lat="49.29093" lon="-0.71441">
        <ele>65.99</ele>
        <time>2026-05-15T09:31:50Z</time>
      </trkpt>
      <trkpt lat="49.29112" lon="-0.71458">
        <ele>65.99</ele>
        <time>2026-05-15T09:32:09Z</time>
      </trkpt>
      <trkpt lat="49.2913" lon="-0.7148">
        <ele>65.99</ele>
        <time>2026-05-15T09:32:29Z</time>
      </trkpt>
      <trkpt lat="49.29146" lon="-0.71498">
        <ele>65.03</ele>
        <time>2026-05-15T09:32:47Z</time>
      </trkpt>
      <trkpt lat="49.29147" lon="-0.715">
        <ele>65.03</ele>
        <time>2026-05-15T09:32:49Z</time>
      </trkpt>
      <trkpt lat="49.29162" lon="-0.71518">
        <ele>64.55</ele>
        <time>2026-05-15T09:33:07Z</time>
      </trkpt>
      <trkpt lat="49.29179" lon="-0.71536">
        <ele>64.55</ele>
        <time>2026-05-15T09:33:26Z</time>
      </trkpt>
      <trkpt lat="49.29194" lon="-0.7155">
        <ele>64.55</ele>
        <time>2026-05-15T09:33:43Z</time>
      </trkpt>
      <trkpt lat="49.292" lon="-0.71557">
        <ele>64.55</ele>
        <time>2026-05-15T09:33:50Z</time>
      </trkpt>
      <trkpt lat="49.29207" lon="-0.71567">
        <ele>64.55</ele>
        <time>2026-05-15T09:33:58Z</time>
      </trkpt>
      <trkpt lat="49.29216" lon="-0.71576">
        <ele>64.55</ele>
        <time>2026-05-15T09:34:08Z</time>
      </trkpt>
      <trkpt lat="49.29218" lon="-0.71578">
        <ele>64.55</ele>
        <time>2026-05-15T09:34:11Z</time>
      </trkpt>
      <trkpt lat="49.29229" lon="-0.71588">
        <ele>65.99</ele>
        <time>2026-05-15T09:34:25Z</time>
      </trkpt>
      <trkpt lat="49.2924" lon="-0.716">
        <ele>65.51</ele>
        <time>2026-05-15T09:34:40Z</time>
      </trkpt>
      <trkpt lat="49.29254" lon="-0.71615">
        <ele>65.51</ele>
        <time>2026-05-15T09:34:54Z</time>
      </trkpt>
      <trkpt lat="49.29266" lon="-0.71633">
        <ele>65.99</ele>
        <time>2026-05-15T09:35:12Z</time>
      </trkpt>
      <trkpt lat="49.29282" lon="-0.71651">
        <ele>66.95</ele>
        <time>2026-05-15T09:35:31Z</time>
      </trkpt>
      <trkpt lat="49.29294" lon="-0.71661">
        <ele>66.95</ele>
        <time>2026-05-15T09:35:45Z</time>
      </trkpt>
      <trkpt lat="49.29307" lon="-0.71675">
        <ele>66.95</ele>
        <time>2026-05-15T09:36:03Z</time>
      </trkpt>
      <trkpt lat="49.2932" lon="-0.7169">
        <ele>66.95</ele>
        <time>2026-05-15T09:36:20Z</time>
      </trkpt>
      <trkpt lat="49.29334" lon="-0.71702">
        <ele>67.43</ele>
        <time>2026-05-15T09:36:35Z</time>
      </trkpt>
      <trkpt lat="49.29355" lon="-0.71721">
        <ele>67.91</ele>
        <time>2026-05-15T09:36:55Z</time>
      </trkpt>
      <trkpt lat="49.29363" lon="-0.71726">
        <ele>67.91</ele>
        <time>2026-05-15T09:37:03Z</time>
      </trkpt>
      <trkpt lat="49.29368" lon="-0.71733">
        <ele>68.39</ele>
        <time>2026-05-15T09:37:22Z</time>
      </trkpt>
      <trkpt lat="49.29377" lon="-0.71742">
        <ele>68.39</ele>
        <time>2026-05-15T09:37:50Z</time>
      </trkpt>
      <trkpt lat="49.2939" lon="-0.71752">
        <ele>68.39</ele>
        <time>2026-05-15T09:38:04Z</time>
      </trkpt>
      <trkpt lat="49.29406" lon="-0.71763">
        <ele>68.39</ele>
        <time>2026-05-15T09:38:21Z</time>
      </trkpt>
      <trkpt lat="49.29419" lon="-0.71775">
        <ele>66.95</ele>
        <time>2026-05-15T09:38:38Z</time>
      </trkpt>
      <trkpt lat="49.29425" lon="-0.7178">
        <ele>66.95</ele>
        <time>2026-05-15T09:38:45Z</time>
      </trkpt>
      <trkpt lat="49.29444" lon="-0.71794">
        <ele>65.99</ele>
        <time>2026-05-15T09:39:04Z</time>
      </trkpt>
      <trkpt lat="49.29459" lon="-0.71805">
        <ele>65.03</ele>
        <time>2026-05-15T09:39:21Z</time>
      </trkpt>
      <trkpt lat="49.29474" lon="-0.71815">
        <ele>64.55</ele>
        <time>2026-05-15T09:39:38Z</time>
      </trkpt>
      <trkpt lat="49.29489" lon="-0.71825">
        <ele>64.07</ele>
        <time>2026-05-15T09:39:54Z</time>
      </trkpt>
      <trkpt lat="49.29501" lon="-0.71832">
        <ele>63.1</ele>
        <time>2026-05-15T09:40:05Z</time>
      </trkpt>
      <trkpt lat="49.29514" lon="-0.71843">
        <ele>63.1</ele>
        <time>2026-05-15T09:40:21Z</time>
      </trkpt>
      <trkpt lat="49.29533" lon="-0.71857">
        <ele>62.14</ele>
        <time>2026-05-15T09:40:40Z</time>
      </trkpt>
      <trkpt lat="49.29541" lon="-0.71862">
        <ele>61.66</ele>
        <time>2026-05-15T09:40:50Z</time>
      </trkpt>
      <trkpt lat="49.29559" lon="-0.71872">
        <ele>61.18</ele>
        <time>2026-05-15T09:41:10Z</time>
      </trkpt>
      <trkpt lat="49.29561" lon="-0.71874">
        <ele>61.18</ele>
        <time>2026-05-15T09:41:13Z</time>
      </trkpt>
      <trkpt lat="49.29578" lon="-0.71884">
        <ele>60.22</ele>
        <time>2026-05-15T09:41:32Z</time>
      </trkpt>
      <trkpt lat="49.29592" lon="-0.71894">
        <ele>58.3</ele>
        <time>2026-05-15T09:41:47Z</time>
      </trkpt>
      <trkpt lat="49.29611" lon="-0.71906">
        <ele>57.82</ele>
        <time>2026-05-15T09:42:05Z</time>
      </trkpt>
      <trkpt lat="49.29628" lon="-0.71922">
        <ele>57.34</ele>
        <time>2026-05-15T09:42:24Z</time>
      </trkpt>
      <trkpt lat="49.29642" lon="-0.71933">
        <ele>56.37</ele>
        <time>2026-05-15T09:42:41Z</time>
      </trkpt>
      <trkpt lat="49.29657" lon="-0.71948">
        <ele>54.93</ele>
        <time>2026-05-15T09:42:59Z</time>
      </trkpt>
      <trkpt lat="49.29678" lon="-0.71966">
        <ele>54.93</ele>
        <time>2026-05-15T09:43:18Z</time>
      </trkpt>
      <trkpt lat="49.29694" lon="-0.7198">
        <ele>54.45</ele>
        <time>2026-05-15T09:43:35Z</time>
      </trkpt>
      <trkpt lat="49.29711" lon="-0.71991">
        <ele>53.97</ele>
        <time>2026-05-15T09:43:51Z</time>
      </trkpt>
      <trkpt lat="49.29726" lon="-0.72002">
        <ele>53.01</ele>
        <time>2026-05-15T09:44:10Z</time>
      </trkpt>
      <trkpt lat="49.29736" lon="-0.72009">
        <ele>53.01</ele>
        <time>2026-05-15T09:44:27Z</time>
      </trkpt>
      <trkpt lat="49.29751" lon="-0.72018">
        <ele>52.05</ele>
        <time>2026-05-15T09:44:44Z</time>
      </trkpt>
      <trkpt lat="49.29764" lon="-0.72028">
        <ele>51.57</ele>
        <time>2026-05-15T09:45:00Z</time>
      </trkpt>
      <trkpt lat="49.29785" lon="-0.72039">
        <ele>51.09</ele>
        <time>2026-05-15T09:45:17Z</time>
      </trkpt>
      <trkpt lat="49.29801" lon="-0.72051">
        <ele>50.61</ele>
        <time>2026-05-15T09:45:33Z</time>
      </trkpt>
      <trkpt lat="49.29811" lon="-0.72059">
        <ele>50.61</ele>
        <time>2026-05-15T09:45:44Z</time>
      </trkpt>
      <trkpt lat="49.29818" lon="-0.72062">
        <ele>50.61</ele>
        <time>2026-05-15T09:45:50Z</time>
      </trkpt>
      <trkpt lat="49.29835" lon="-0.7207">
        <ele>49.65</ele>
        <time>2026-05-15T09:46:08Z</time>
      </trkpt>
      <trkpt lat="49.29857" lon="-0.72081">
        <ele>48.68</ele>
        <time>2026-05-15T09:46:29Z</time>
      </trkpt>
      <trkpt lat="49.29879" lon="-0.7209">
        <ele>48.2</ele>
        <time>2026-05-15T09:46:50Z</time>
      </trkpt>
      <trkpt lat="49.29896" lon="-0.721">
        <ele>48.2</ele>
        <time>2026-05-15T09:47:05Z</time>
      </trkpt>
      <trkpt lat="49.29908" lon="-0.72108">
        <ele>48.2</ele>
        <time>2026-05-15T09:47:23Z</time>
      </trkpt>
      <trkpt lat="49.29918" lon="-0.72115">
        <ele>48.2</ele>
        <time>2026-05-15T09:47:38Z</time>
      </trkpt>
      <trkpt lat="49.2993" lon="-0.72122">
        <ele>48.2</ele>
        <time>2026-05-15T09:47:59Z</time>
      </trkpt>
      <trkpt lat="49.29944" lon="-0.72131">
        <ele>47.24</ele>
        <time>2026-05-15T09:48:26Z</time>
      </trkpt>
      <trkpt lat="49.29948" lon="-0.72136">
        <ele>47.24</ele>
        <time>2026-05-15T09:48:50Z</time>
      </trkpt>
      <trkpt lat="49.29965" lon="-0.72149">
        <ele>47.24</ele>
        <time>2026-05-15T09:49:08Z</time>
      </trkpt>
      <trkpt lat="49.29985" lon="-0.72172">
        <ele>47.24</ele>
        <time>2026-05-15T09:49:29Z</time>
      </trkpt>
      <trkpt lat="49.30002" lon="-0.72189">
        <ele>47.24</ele>
        <time>2026-05-15T09:49:47Z</time>
      </trkpt>
      <trkpt lat="49.30022" lon="-0.72196">
        <ele>46.28</ele>
        <time>2026-05-15T09:50:05Z</time>
      </trkpt>
      <trkpt lat="49.30032" lon="-0.722">
        <ele>46.28</ele>
        <time>2026-05-15T09:50:14Z</time>
      </trkpt>
      <trkpt lat="49.3004" lon="-0.72216">
        <ele>46.28</ele>
        <time>2026-05-15T09:50:28Z</time>
      </trkpt>
      <trkpt lat="49.30047" lon="-0.72238">
        <ele>46.28</ele>
        <time>2026-05-15T09:50:43Z</time>
      </trkpt>
      <trkpt lat="49.30054" lon="-0.72259">
        <ele>46.28</ele>
        <time>2026-05-15T09:50:58Z</time>
      </trkpt>
      <trkpt lat="49.30065" lon="-0.72279">
        <ele>46.28</ele>
        <time>2026-05-15T09:51:15Z</time>
      </trkpt>
      <trkpt lat="49.30071" lon="-0.72281">
        <ele>46.28</ele>
        <time>2026-05-15T09:51:21Z</time>
      </trkpt>
      <trkpt lat="49.30078" lon="-0.72276">
        <ele>46.28</ele>
        <time>2026-05-15T09:51:36Z</time>
      </trkpt>
      <trkpt lat="49.30082" lon="-0.72275">
        <ele>45.8</ele>
        <time>2026-05-15T09:52:09Z</time>
      </trkpt>
      <trkpt lat="49.30082" lon="-0.72276">
        <ele>45.8</ele>
        <time>2026-05-15T09:52:43Z</time>
      </trkpt>
      <trkpt lat="49.3008" lon="-0.72275">
        <ele>46.28</ele>
        <time>2026-05-15T09:53:11Z</time>
      </trkpt>
      <trkpt lat="49.30077" lon="-0.72275">
        <ele>46.28</ele>
        <time>2026-05-15T09:53:44Z</time>
      </trkpt>
      <trkpt lat="49.3008" lon="-0.72276">
        <ele>46.28</ele>
        <time>2026-05-15T09:54:07Z</time>
      </trkpt>
      <trkpt lat="49.30079" lon="-0.72276">
        <ele>46.28</ele>
        <time>2026-05-15T09:54:29Z</time>
      </trkpt>
      <trkpt lat="49.30081" lon="-0.72276">
        <ele>45.8</ele>
        <time>2026-05-15T09:54:55Z</time>
      </trkpt>
      <trkpt lat="49.3008" lon="-0.72275">
        <ele>45.8</ele>
        <time>2026-05-15T09:55:14Z</time>
      </trkpt>
      <trkpt lat="49.3008" lon="-0.72277">
        <ele>45.8</ele>
        <time>2026-05-15T09:55:34Z</time>
      </trkpt>
      <trkpt lat="49.30084" lon="-0.72276">
        <ele>45.8</ele>
        <time>2026-05-15T09:56:00Z</time>
      </trkpt>
      <trkpt lat="49.30085" lon="-0.72277">
        <ele>45.8</ele>
        <time>2026-05-15T09:56:24Z</time>
      </trkpt>
      <trkpt lat="49.30083" lon="-0.72278">
        <ele>45.32</ele>
        <time>2026-05-15T09:56:51Z</time>
      </trkpt>
      <trkpt lat="49.30084" lon="-0.72277">
        <ele>45.32</ele>
        <time>2026-05-15T09:57:13Z</time>
      </trkpt>
      <trkpt lat="49.30086" lon="-0.72272">
        <ele>45.32</ele>
        <time>2026-05-15T09:57:29Z</time>
      </trkpt>
      <trkpt lat="49.30094" lon="-0.72264">
        <ele>45.32</ele>
        <time>2026-05-15T09:57:42Z</time>
      </trkpt>
      <trkpt lat="49.30105" lon="-0.72259">
        <ele>46.76</ele>
        <time>2026-05-15T09:57:57Z</time>
      </trkpt>
      <trkpt lat="49.30117" lon="-0.72256">
        <ele>47.72</ele>
        <time>2026-05-15T09:58:12Z</time>
      </trkpt>
      <trkpt lat="49.30128" lon="-0.72252">
        <ele>47.72</ele>
        <time>2026-05-15T09:58:27Z</time>
      </trkpt>
      <trkpt lat="49.30147" lon="-0.72239">
        <ele>48.2</ele>
        <time>2026-05-15T09:58:47Z</time>
      </trkpt>
      <trkpt lat="49.3016" lon="-0.72242">
        <ele>48.2</ele>
        <time>2026-05-15T09:59:03Z</time>
      </trkpt>
      <trkpt lat="49.30169" lon="-0.72258">
        <ele>48.68</ele>
        <time>2026-05-15T09:59:21Z</time>
      </trkpt>
      <trkpt lat="49.30183" lon="-0.72276">
        <ele>48.68</ele>
        <time>2026-05-15T09:59:40Z</time>
      </trkpt>
      <trkpt lat="49.30185" lon="-0.72278">
        <ele>48.68</ele>
        <time>2026-05-15T09:59:42Z</time>
      </trkpt>
      <trkpt lat="49.30192" lon="-0.72287">
        <ele>47.24</ele>
        <time>2026-05-15T09:59:50Z</time>
      </trkpt>
      <trkpt lat="49.30206" lon="-0.72302">
        <ele>48.68</ele>
        <time>2026-05-15T10:00:08Z</time>
      </trkpt>
      <trkpt lat="49.30212" lon="-0.72306">
        <ele>49.16</ele>
        <time>2026-05-15T10:00:25Z</time>
      </trkpt>
      <trkpt lat="49.30221" lon="-0.72319">
        <ele>48.68</ele>
        <time>2026-05-15T10:00:40Z</time>
      </trkpt>
      <trkpt lat="49.30223" lon="-0.72321">
        <ele>47.24</ele>
        <time>2026-05-15T10:00:42Z</time>
      </trkpt>
      <trkpt lat="49.30241" lon="-0.72338">
        <ele>49.65</ele>
        <time>2026-05-15T10:01:01Z</time>
      </trkpt>
      <trkpt lat="49.30258" lon="-0.72354">
        <ele>49.65</ele>
        <time>2026-05-15T10:01:20Z</time>
      </trkpt>
      <trkpt lat="49.3028" lon="-0.72362">
        <ele>50.13</ele>
        <time>2026-05-15T10:01:39Z</time>
      </trkpt>
      <trkpt lat="49.30292" lon="-0.72366">
        <ele>48.68</ele>
        <time>2026-05-15T10:01:54Z</time>
      </trkpt>
      <trkpt lat="49.30302" lon="-0.72373">
        <ele>48.2</ele>
        <time>2026-05-15T10:02:11Z</time>
      </trkpt>
      <trkpt lat="49.30313" lon="-0.7238">
        <ele>48.2</ele>
        <time>2026-05-15T10:02:27Z</time>
      </trkpt>
      <trkpt lat="49.30324" lon="-0.7239">
        <ele>49.65</ele>
        <time>2026-05-15T10:02:41Z</time>
      </trkpt>
      <trkpt lat="49.30341" lon="-0.72404">
        <ele>51.57</ele>
        <time>2026-05-15T10:03:02Z</time>
      </trkpt>
      <trkpt lat="49.30357" lon="-0.72416">
        <ele>52.05</ele>
        <time>2026-05-15T10:03:19Z</time>
      </trkpt>
      <trkpt lat="49.30373" lon="-0.72423">
        <ele>52.53</ele>
        <time>2026-05-15T10:03:35Z</time>
      </trkpt>
      <trkpt lat="49.30374" lon="-0.72423">
        <ele>53.01</ele>
        <time>2026-05-15T10:03:36Z</time>
      </trkpt>
      <trkpt lat="49.30397" lon="-0.72427">
        <ele>53.01</ele>
        <time>2026-05-15T10:03:58Z</time>
      </trkpt>
      <trkpt lat="49.30417" lon="-0.7243">
        <ele>52.53</ele>
        <time>2026-05-15T10:04:17Z</time>
      </trkpt>
      <trkpt lat="49.30435" lon="-0.72434">
        <ele>52.53</ele>
        <time>2026-05-15T10:04:34Z</time>
      </trkpt>
      <trkpt lat="49.30456" lon="-0.7244">
        <ele>52.53</ele>
        <time>2026-05-15T10:04:54Z</time>
      </trkpt>
      <trkpt lat="49.30475" lon="-0.72448">
        <ele>52.53</ele>
        <time>2026-05-15T10:05:12Z</time>
      </trkpt>
      <trkpt lat="49.30493" lon="-0.72456">
        <ele>52.53</ele>
        <time>2026-05-15T10:05:31Z</time>
      </trkpt>
      <trkpt lat="49.30509" lon="-0.72463">
        <ele>52.53</ele>
        <time>2026-05-15T10:05:47Z</time>
      </trkpt>
      <trkpt lat="49.30525" lon="-0.72473">
        <ele>51.57</ele>
        <time>2026-05-15T10:06:04Z</time>
      </trkpt>
      <trkpt lat="49.30539" lon="-0.72482">
        <ele>51.57</ele>
        <time>2026-05-15T10:06:18Z</time>
      </trkpt>
      <trkpt lat="49.30544" lon="-0.72487">
        <ele>51.57</ele>
        <time>2026-05-15T10:06:23Z</time>
      </trkpt>
      <trkpt lat="49.30561" lon="-0.72503">
        <ele>51.09</ele>
        <time>2026-05-15T10:06:43Z</time>
      </trkpt>
      <trkpt lat="49.30583" lon="-0.72528">
        <ele>50.61</ele>
        <time>2026-05-15T10:07:10Z</time>
      </trkpt>
      <trkpt lat="49.30597" lon="-0.7254">
        <ele>50.13</ele>
        <time>2026-05-15T10:07:22Z</time>
      </trkpt>
      <trkpt lat="49.30617" lon="-0.72536">
        <ele>50.13</ele>
        <time>2026-05-15T10:07:43Z</time>
      </trkpt>
      <trkpt lat="49.30628" lon="-0.72535">
        <ele>50.13</ele>
        <time>2026-05-15T10:07:58Z</time>
      </trkpt>
      <trkpt lat="49.30648" lon="-0.72527">
        <ele>50.61</ele>
        <time>2026-05-15T10:08:18Z</time>
      </trkpt>
      <trkpt lat="49.3067" lon="-0.7252">
        <ele>50.61</ele>
        <time>2026-05-15T10:08:39Z</time>
      </trkpt>
      <trkpt lat="49.30675" lon="-0.72517">
        <ele>50.61</ele>
        <time>2026-05-15T10:08:53Z</time>
      </trkpt>
      <trkpt lat="49.30696" lon="-0.7251">
        <ele>51.57</ele>
        <time>2026-05-15T10:09:16Z</time>
      </trkpt>
      <trkpt lat="49.30715" lon="-0.72506">
        <ele>51.57</ele>
        <time>2026-05-15T10:09:31Z</time>
      </trkpt>
      <trkpt lat="49.30728" lon="-0.72503">
        <ele>51.09</ele>
        <time>2026-05-15T10:09:46Z</time>
      </trkpt>
      <trkpt lat="49.30745" lon="-0.72497">
        <ele>51.09</ele>
        <time>2026-05-15T10:10:05Z</time>
      </trkpt>
      <trkpt lat="49.30763" lon="-0.72493">
        <ele>51.09</ele>
        <time>2026-05-15T10:10:22Z</time>
      </trkpt>
      <trkpt lat="49.30784" lon="-0.72489">
        <ele>51.09</ele>
        <time>2026-05-15T10:10:42Z</time>
      </trkpt>
      <trkpt lat="49.30794" lon="-0.72488">
        <ele>51.09</ele>
        <time>2026-05-15T10:10:59Z</time>
      </trkpt>
      <trkpt lat="49.30806" lon="-0.72485">
        <ele>49.65</ele>
        <time>2026-05-15T10:11:12Z</time>
      </trkpt>
      <trkpt lat="49.30822" lon="-0.72482">
        <ele>49.65</ele>
        <time>2026-05-15T10:11:27Z</time>
      </trkpt>
      <trkpt lat="49.30835" lon="-0.72482">
        <ele>49.65</ele>
        <time>2026-05-15T10:11:43Z</time>
      </trkpt>
      <trkpt lat="49.30855" lon="-0.7248">
        <ele>49.65</ele>
        <time>2026-05-15T10:12:03Z</time>
      </trkpt>
      <trkpt lat="49.30878" lon="-0.72475">
        <ele>48.68</ele>
        <time>2026-05-15T10:12:24Z</time>
      </trkpt>
      <trkpt lat="49.309" lon="-0.72471">
        <ele>47.72</ele>
        <time>2026-05-15T10:12:44Z</time>
      </trkpt>
      <trkpt lat="49.30907" lon="-0.72457">
        <ele>48.68</ele>
        <time>2026-05-15T10:12:56Z</time>
      </trkpt>
      <trkpt lat="49.30903" lon="-0.72434">
        <ele>49.16</ele>
        <time>2026-05-15T10:13:11Z</time>
      </trkpt>
      <trkpt lat="49.30897" lon="-0.72405">
        <ele>49.16</ele>
        <time>2026-05-15T10:13:31Z</time>
      </trkpt>
      <trkpt lat="49.30887" lon="-0.7237">
        <ele>49.16</ele>
        <time>2026-05-15T10:13:52Z</time>
      </trkpt>
      <trkpt lat="49.30879" lon="-0.72341">
        <ele>49.16</ele>
        <time>2026-05-15T10:14:11Z</time>
      </trkpt>
      <trkpt lat="49.30871" lon="-0.72314">
        <ele>49.16</ele>
        <time>2026-05-15T10:14:30Z</time>
      </trkpt>
      <trkpt lat="49.30861" lon="-0.72288">
        <ele>49.16</ele>
        <time>2026-05-15T10:14:47Z</time>
      </trkpt>
      <trkpt lat="49.3085" lon="-0.72259">
        <ele>49.16</ele>
        <time>2026-05-15T10:15:07Z</time>
      </trkpt>
      <trkpt lat="49.30839" lon="-0.72233">
        <ele>49.16</ele>
        <time>2026-05-15T10:15:26Z</time>
      </trkpt>
      <trkpt lat="49.30828" lon="-0.72202">
        <ele>49.65</ele>
        <time>2026-05-15T10:15:47Z</time>
      </trkpt>
      <trkpt lat="49.30818" lon="-0.72174">
        <ele>49.65</ele>
        <time>2026-05-15T10:16:07Z</time>
      </trkpt>
      <trkpt lat="49.30809" lon="-0.7215">
        <ele>49.65</ele>
        <time>2026-05-15T10:16:25Z</time>
      </trkpt>
      <trkpt lat="49.30801" lon="-0.72122">
        <ele>48.2</ele>
        <time>2026-05-15T10:16:46Z</time>
      </trkpt>
      <trkpt lat="49.30796" lon="-0.721">
        <ele>47.72</ele>
        <time>2026-05-15T10:17:01Z</time>
      </trkpt>
      <trkpt lat="49.30792" lon="-0.72072">
        <ele>47.24</ele>
        <time>2026-05-15T10:17:18Z</time>
      </trkpt>
      <trkpt lat="49.30788" lon="-0.72055">
        <ele>46.76</ele>
        <time>2026-05-15T10:17:34Z</time>
      </trkpt>
      <trkpt lat="49.30783" lon="-0.72037">
        <ele>46.28</ele>
        <time>2026-05-15T10:17:57Z</time>
      </trkpt>
      <trkpt lat="49.30777" lon="-0.72004">
        <ele>46.28</ele>
        <time>2026-05-15T10:18:16Z</time>
      </trkpt>
      <trkpt lat="49.30769" lon="-0.71976">
        <ele>45.8</ele>
        <time>2026-05-15T10:18:36Z</time>
      </trkpt>
      <trkpt lat="49.30777" lon="-0.71972">
        <ele>45.8</ele>
        <time>2026-05-15T10:18:53Z</time>
      </trkpt>
      <trkpt lat="49.30783" lon="-0.71971">
        <ele>45.8</ele>
        <time>2026-05-15T10:19:06Z</time>
      </trkpt>
      <trkpt lat="49.30805" lon="-0.71973">
        <ele>45.8</ele>
        <time>2026-05-15T10:19:26Z</time>
      </trkpt>
      <trkpt lat="49.30829" lon="-0.71971">
        <ele>45.32</ele>
        <time>2026-05-15T10:19:48Z</time>
      </trkpt>
      <trkpt lat="49.30848" lon="-0.71971">
        <ele>45.32</ele>
        <time>2026-05-15T10:20:05Z</time>
      </trkpt>
      <trkpt lat="49.30857" lon="-0.71974">
        <ele>45.32</ele>
        <time>2026-05-15T10:20:14Z</time>
      </trkpt>
      <trkpt lat="49.30877" lon="-0.7198">
        <ele>44.84</ele>
        <time>2026-05-15T10:20:33Z</time>
      </trkpt>
      <trkpt lat="49.309" lon="-0.71985">
        <ele>44.84</ele>
        <time>2026-05-15T10:20:53Z</time>
      </trkpt>
      <trkpt lat="49.3092" lon="-0.7199">
        <ele>44.84</ele>
        <time>2026-05-15T10:21:13Z</time>
      </trkpt>
      <trkpt lat="49.30936" lon="-0.71996">
        <ele>44.84</ele>
        <time>2026-05-15T10:21:30Z</time>
      </trkpt>
      <trkpt lat="49.30959" lon="-0.72004">
        <ele>43.88</ele>
        <time>2026-05-15T10:21:52Z</time>
      </trkpt>
      <trkpt lat="49.30966" lon="-0.72005">
        <ele>43.88</ele>
        <time>2026-05-15T10:22:08Z</time>
      </trkpt>
      <trkpt lat="49.30968" lon="-0.72005">
        <ele>43.88</ele>
        <time>2026-05-15T10:22:22Z</time>
      </trkpt>
      <trkpt lat="49.30979" lon="-0.72009">
        <ele>43.88</ele>
        <time>2026-05-15T10:22:39Z</time>
      </trkpt>
      <trkpt lat="49.30989" lon="-0.72011">
        <ele>43.88</ele>
        <time>2026-05-15T10:22:55Z</time>
      </trkpt>
      <trkpt lat="49.30998" lon="-0.72009">
        <ele>43.88</ele>
        <time>2026-05-15T10:23:05Z</time>
      </trkpt>
      <trkpt lat="49.31014" lon="-0.71994">
        <ele>42.92</ele>
        <time>2026-05-15T10:23:24Z</time>
      </trkpt>
      <trkpt lat="49.31022" lon="-0.71987">
        <ele>42.92</ele>
        <time>2026-05-15T10:23:42Z</time>
      </trkpt>
      <trkpt lat="49.31026" lon="-0.71983">
        <ele>42.92</ele>
        <time>2026-05-15T10:24:08Z</time>
      </trkpt>
      <trkpt lat="49.31029" lon="-0.71978">
        <ele>42.92</ele>
        <time>2026-05-15T10:24:12Z</time>
      </trkpt>
      <trkpt lat="49.3105" lon="-0.71953">
        <ele>40.99</ele>
        <time>2026-05-15T10:24:35Z</time>
      </trkpt>
      <trkpt lat="49.31069" lon="-0.71931">
        <ele>40.51</ele>
        <time>2026-05-15T10:24:57Z</time>
      </trkpt>
      <trkpt lat="49.3108" lon="-0.71919">
        <ele>40.51</ele>
        <time>2026-05-15T10:25:09Z</time>
      </trkpt>
      <trkpt lat="49.31099" lon="-0.719">
        <ele>40.51</ele>
        <time>2026-05-15T10:25:28Z</time>
      </trkpt>
      <trkpt lat="49.31115" lon="-0.71881">
        <ele>38.59</ele>
        <time>2026-05-15T10:25:45Z</time>
      </trkpt>
      <trkpt lat="49.31136" lon="-0.7186">
        <ele>38.11</ele>
        <time>2026-05-15T10:26:07Z</time>
      </trkpt>
      <trkpt lat="49.31156" lon="-0.71841">
        <ele>37.63</ele>
        <time>2026-05-15T10:26:26Z</time>
      </trkpt>
      <trkpt lat="49.31162" lon="-0.71844">
        <ele>37.63</ele>
        <time>2026-05-15T10:26:33Z</time>
      </trkpt>
      <trkpt lat="49.31168" lon="-0.71852">
        <ele>37.63</ele>
        <time>2026-05-15T10:26:40Z</time>
      </trkpt>
      <trkpt lat="49.31183" lon="-0.71874">
        <ele>37.63</ele>
        <time>2026-05-15T10:26:59Z</time>
      </trkpt>
      <trkpt lat="49.31198" lon="-0.71892">
        <ele>37.63</ele>
        <time>2026-05-15T10:27:16Z</time>
      </trkpt>
      <trkpt lat="49.31214" lon="-0.71909">
        <ele>37.63</ele>
        <time>2026-05-15T10:27:34Z</time>
      </trkpt>
      <trkpt lat="49.3122" lon="-0.71916">
        <ele>37.15</ele>
        <time>2026-05-15T10:27:46Z</time>
      </trkpt>
      <trkpt lat="49.31226" lon="-0.71922">
        <ele>37.15</ele>
        <time>2026-05-15T10:28:06Z</time>
      </trkpt>
      <trkpt lat="49.31237" lon="-0.71933">
        <ele>37.15</ele>
        <time>2026-05-15T10:28:21Z</time>
      </trkpt>
      <trkpt lat="49.31251" lon="-0.71948">
        <ele>36.19</ele>
        <time>2026-05-15T10:28:42Z</time>
      </trkpt>
      <trkpt lat="49.3127" lon="-0.71962">
        <ele>35.71</ele>
        <time>2026-05-15T10:29:02Z</time>
      </trkpt>
      <trkpt lat="49.31287" lon="-0.71973">
        <ele>35.23</ele>
        <time>2026-05-15T10:29:21Z</time>
      </trkpt>
      <trkpt lat="49.31314" lon="-0.71987">
        <ele>34.74</ele>
        <time>2026-05-15T10:29:43Z</time>
      </trkpt>
      <trkpt lat="49.31319" lon="-0.71987">
        <ele>34.74</ele>
        <time>2026-05-15T10:29:48Z</time>
      </trkpt>
      <trkpt lat="49.31337" lon="-0.7199">
        <ele>34.74</ele>
        <time>2026-05-15T10:30:04Z</time>
      </trkpt>
      <trkpt lat="49.31355" lon="-0.7199">
        <ele>33.3</ele>
        <time>2026-05-15T10:30:23Z</time>
      </trkpt>
      <trkpt lat="49.31373" lon="-0.71994">
        <ele>32.82</ele>
        <time>2026-05-15T10:30:41Z</time>
      </trkpt>
      <trkpt lat="49.31388" lon="-0.72001">
        <ele>32.82</ele>
        <time>2026-05-15T10:31:01Z</time>
      </trkpt>
      <trkpt lat="49.31402" lon="-0.71984">
        <ele>32.34</ele>
        <time>2026-05-15T10:31:19Z</time>
      </trkpt>
      <trkpt lat="49.31415" lon="-0.71955">
        <ele>31.86</ele>
        <time>2026-05-15T10:31:41Z</time>
      </trkpt>
      <trkpt lat="49.31421" lon="-0.71921">
        <ele>31.38</ele>
        <time>2026-05-15T10:32:00Z</time>
      </trkpt>
      <trkpt lat="49.31428" lon="-0.71891">
        <ele>30.9</ele>
        <time>2026-05-15T10:32:20Z</time>
      </trkpt>
      <trkpt lat="49.31435" lon="-0.71859">
        <ele>30.9</ele>
        <time>2026-05-15T10:32:41Z</time>
      </trkpt>
      <trkpt lat="49.31441" lon="-0.7184">
        <ele>30.9</ele>
        <time>2026-05-15T10:32:57Z</time>
      </trkpt>
      <trkpt lat="49.31447" lon="-0.71825">
        <ele>30.42</ele>
        <time>2026-05-15T10:33:16Z</time>
      </trkpt>
      <trkpt lat="49.31454" lon="-0.71805">
        <ele>30.42</ele>
        <time>2026-05-15T10:33:33Z</time>
      </trkpt>
      <trkpt lat="49.31465" lon="-0.71785">
        <ele>30.42</ele>
        <time>2026-05-15T10:33:49Z</time>
      </trkpt>
      <trkpt lat="49.31475" lon="-0.71762">
        <ele>29.46</ele>
        <time>2026-05-15T10:34:10Z</time>
      </trkpt>
      <trkpt lat="49.31485" lon="-0.71733">
        <ele>29.46</ele>
        <time>2026-05-15T10:34:28Z</time>
      </trkpt>
      <trkpt lat="49.31491" lon="-0.71707">
        <ele>29.46</ele>
        <time>2026-05-15T10:34:47Z</time>
      </trkpt>
      <trkpt lat="49.31502" lon="-0.71682">
        <ele>28.02</ele>
        <time>2026-05-15T10:35:05Z</time>
      </trkpt>
      <trkpt lat="49.31513" lon="-0.71658">
        <ele>28.02</ele>
        <time>2026-05-15T10:35:25Z</time>
      </trkpt>
      <trkpt lat="49.31524" lon="-0.71627">
        <ele>27.53</ele>
        <time>2026-05-15T10:35:46Z</time>
      </trkpt>
      <trkpt lat="49.31532" lon="-0.71606">
        <ele>28.02</ele>
        <time>2026-05-15T10:36:05Z</time>
      </trkpt>
      <trkpt lat="49.31543" lon="-0.71584">
        <ele>27.53</ele>
        <time>2026-05-15T10:36:24Z</time>
      </trkpt>
      <trkpt lat="49.31552" lon="-0.71563">
        <ele>26.57</ele>
        <time>2026-05-15T10:36:42Z</time>
      </trkpt>
      <trkpt lat="49.31561" lon="-0.71541">
        <ele>26.57</ele>
        <time>2026-05-15T10:36:57Z</time>
      </trkpt>
      <trkpt lat="49.31575" lon="-0.7151">
        <ele>26.57</ele>
        <time>2026-05-15T10:37:19Z</time>
      </trkpt>
      <trkpt lat="49.31581" lon="-0.71485">
        <ele>26.57</ele>
        <time>2026-05-15T10:37:36Z</time>
      </trkpt>
      <trkpt lat="49.31573" lon="-0.7148">
        <ele>26.57</ele>
        <time>2026-05-15T10:37:50Z</time>
      </trkpt>
      <trkpt lat="49.31569" lon="-0.71479">
        <ele>26.57</ele>
        <time>2026-05-15T10:38:06Z</time>
      </trkpt>
      <trkpt lat="49.31566" lon="-0.71479">
        <ele>26.57</ele>
        <time>2026-05-15T10:38:14Z</time>
      </trkpt>
      <trkpt lat="49.31556" lon="-0.71483">
        <ele>28.02</ele>
        <time>2026-05-15T10:38:23Z</time>
      </trkpt>
      <trkpt lat="49.31543" lon="-0.71486">
        <ele>28.02</ele>
        <time>2026-05-15T10:38:38Z</time>
      </trkpt>
      <trkpt lat="49.31522" lon="-0.71487">
        <ele>28.5</ele>
        <time>2026-05-15T10:38:56Z</time>
      </trkpt>
      <trkpt lat="49.31501" lon="-0.71492">
        <ele>28.02</ele>
        <time>2026-05-15T10:39:14Z</time>
      </trkpt>
      <trkpt lat="49.31478" lon="-0.71503">
        <ele>28.5</ele>
        <time>2026-05-15T10:39:34Z</time>
      </trkpt>
      <trkpt lat="49.31463" lon="-0.71513">
        <ele>28.5</ele>
        <time>2026-05-15T10:39:48Z</time>
      </trkpt>
      <trkpt lat="49.31448" lon="-0.71521">
        <ele>28.5</ele>
        <time>2026-05-15T10:40:04Z</time>
      </trkpt>
      <trkpt lat="49.31426" lon="-0.7153">
        <ele>28.98</ele>
        <time>2026-05-15T10:40:23Z</time>
      </trkpt>
      <trkpt lat="49.31407" lon="-0.71531">
        <ele>28.98</ele>
        <time>2026-05-15T10:40:42Z</time>
      </trkpt>
      <trkpt lat="49.31401" lon="-0.71531">
        <ele>28.98</ele>
        <time>2026-05-15T10:40:50Z</time>
      </trkpt>
      <trkpt lat="49.31381" lon="-0.71521">
        <ele>29.46</ele>
        <time>2026-05-15T10:41:09Z</time>
      </trkpt>
      <trkpt lat="49.31364" lon="-0.71511">
        <ele>29.46</ele>
        <time>2026-05-15T10:41:26Z</time>
      </trkpt>
      <trkpt lat="49.31361" lon="-0.71509">
        <ele>29.46</ele>
        <time>2026-05-15T10:41:29Z</time>
      </trkpt>
      <trkpt lat="49.31357" lon="-0.71505">
        <ele>29.46</ele>
        <time>2026-05-15T10:41:33Z</time>
      </trkpt>
      <trkpt lat="49.31355" lon="-0.71503">
        <ele>29.46</ele>
        <time>2026-05-15T10:41:36Z</time>
      </trkpt>
      <trkpt lat="49.31341" lon="-0.7149">
        <ele>29.46</ele>
        <time>2026-05-15T10:41:53Z</time>
      </trkpt>
      <trkpt lat="49.31324" lon="-0.71474">
        <ele>28.98</ele>
        <time>2026-05-15T10:42:12Z</time>
      </trkpt>
      <trkpt lat="49.31307" lon="-0.7146">
        <ele>28.98</ele>
        <time>2026-05-15T10:42:29Z</time>
      </trkpt>
      <trkpt lat="49.31304" lon="-0.71457">
        <ele>28.98</ele>
        <time>2026-05-15T10:42:33Z</time>
      </trkpt>
      <trkpt lat="49.31287" lon="-0.71445">
        <ele>28.98</ele>
        <time>2026-05-15T10:42:50Z</time>
      </trkpt>
      <trkpt lat="49.31269" lon="-0.71435">
        <ele>29.46</ele>
        <time>2026-05-15T10:43:08Z</time>
      </trkpt>
      <trkpt lat="49.31258" lon="-0.71431">
        <ele>29.46</ele>
        <time>2026-05-15T10:43:19Z</time>
      </trkpt>
      <trkpt lat="49.31253" lon="-0.7143">
        <ele>29.46</ele>
        <time>2026-05-15T10:43:23Z</time>
      </trkpt>
      <trkpt lat="49.3124" lon="-0.71428">
        <ele>29.46</ele>
        <time>2026-05-15T10:43:35Z</time>
      </trkpt>
      <trkpt lat="49.31219" lon="-0.71422">
        <ele>29.46</ele>
        <time>2026-05-15T10:43:54Z</time>
      </trkpt>
      <trkpt lat="49.31198" lon="-0.71416">
        <ele>29.46</ele>
        <time>2026-05-15T10:44:12Z</time>
      </trkpt>
      <trkpt lat="49.3118" lon="-0.7141">
        <ele>29.46</ele>
        <time>2026-05-15T10:44:29Z</time>
      </trkpt>
      <trkpt lat="49.31165" lon="-0.71403">
        <ele>29.46</ele>
        <time>2026-05-15T10:44:44Z</time>
      </trkpt>
      <trkpt lat="49.31142" lon="-0.71394">
        <ele>29.94</ele>
        <time>2026-05-15T10:45:05Z</time>
      </trkpt>
      <trkpt lat="49.31139" lon="-0.71393">
        <ele>29.94</ele>
        <time>2026-05-15T10:45:08Z</time>
      </trkpt>
      <trkpt lat="49.31122" lon="-0.71385">
        <ele>29.94</ele>
        <time>2026-05-15T10:45:24Z</time>
      </trkpt>
      <trkpt lat="49.31119" lon="-0.71384">
        <ele>29.94</ele>
        <time>2026-05-15T10:45:26Z</time>
      </trkpt>
      <trkpt lat="49.31111" lon="-0.71381">
        <ele>29.94</ele>
        <time>2026-05-15T10:45:34Z</time>
      </trkpt>
      <trkpt lat="49.31108" lon="-0.71379">
        <ele>29.94</ele>
        <time>2026-05-15T10:45:37Z</time>
      </trkpt>
      <trkpt lat="49.31101" lon="-0.71376">
        <ele>29.94</ele>
        <time>2026-05-15T10:45:44Z</time>
      </trkpt>
      <trkpt lat="49.31085" lon="-0.7137">
        <ele>29.94</ele>
        <time>2026-05-15T10:46:00Z</time>
      </trkpt>
      <trkpt lat="49.31065" lon="-0.71362">
        <ele>29.94</ele>
        <time>2026-05-15T10:46:19Z</time>
      </trkpt>
      <trkpt lat="49.31049" lon="-0.71356">
        <ele>29.94</ele>
        <time>2026-05-15T10:46:36Z</time>
      </trkpt>
      <trkpt lat="49.31042" lon="-0.71345">
        <ele>29.94</ele>
        <time>2026-05-15T10:46:50Z</time>
      </trkpt>
      <trkpt lat="49.31039" lon="-0.71345">
        <ele>28.5</ele>
        <time>2026-05-15T10:46:54Z</time>
      </trkpt>
      <trkpt lat="49.31038" lon="-0.71346">
        <ele>28.5</ele>
        <time>2026-05-15T10:46:55Z</time>
      </trkpt>
      <trkpt lat="49.31016" lon="-0.71343">
        <ele>28.5</ele>
        <time>2026-05-15T10:47:16Z</time>
      </trkpt>
      <trkpt lat="49.31" lon="-0.71343">
        <ele>28.5</ele>
        <time>2026-05-15T10:47:33Z</time>
      </trkpt>
      <trkpt lat="49.30978" lon="-0.7134">
        <ele>28.5</ele>
        <time>2026-05-15T10:47:52Z</time>
      </trkpt>
      <trkpt lat="49.30956" lon="-0.71337">
        <ele>28.5</ele>
        <time>2026-05-15T10:48:12Z</time>
      </trkpt>
      <trkpt lat="49.30942" lon="-0.71335">
        <ele>28.5</ele>
        <time>2026-05-15T10:48:28Z</time>
      </trkpt>
      <trkpt lat="49.30927" lon="-0.7134">
        <ele>28.5</ele>
        <time>2026-05-15T10:48:43Z</time>
      </trkpt>
      <trkpt lat="49.30902" lon="-0.71336">
        <ele>29.94</ele>
        <time>2026-05-15T10:49:05Z</time>
      </trkpt>
      <trkpt lat="49.30898" lon="-0.71332">
        <ele>29.94</ele>
        <time>2026-05-15T10:49:20Z</time>
      </trkpt>
      <trkpt lat="49.30897" lon="-0.71335">
        <ele>29.94</ele>
        <time>2026-05-15T10:49:45Z</time>
      </trkpt>
      <trkpt lat="49.30895" lon="-0.71333">
        <ele>29.94</ele>
        <time>2026-05-15T10:50:09Z</time>
      </trkpt>
      <trkpt lat="49.30882" lon="-0.71325">
        <ele>29.46</ele>
        <time>2026-05-15T10:50:23Z</time>
      </trkpt>
      <trkpt lat="49.30868" lon="-0.7132">
        <ele>29.94</ele>
        <time>2026-05-15T10:50:38Z</time>
      </trkpt>
      <trkpt lat="49.30852" lon="-0.71309">
        <ele>29.94</ele>
        <time>2026-05-15T10:50:56Z</time>
      </trkpt>
      <trkpt lat="49.30835" lon="-0.71298">
        <ele>29.94</ele>
        <time>2026-05-15T10:51:14Z</time>
      </trkpt>
      <trkpt lat="49.30815" lon="-0.71286">
        <ele>29.94</ele>
        <time>2026-05-15T10:51:34Z</time>
      </trkpt>
      <trkpt lat="49.30805" lon="-0.71273">
        <ele>29.94</ele>
        <time>2026-05-15T10:51:52Z</time>
      </trkpt>
      <trkpt lat="49.30794" lon="-0.71261">
        <ele>29.94</ele>
        <time>2026-05-15T10:52:08Z</time>
      </trkpt>
      <trkpt lat="49.30779" lon="-0.71249">
        <ele>30.42</ele>
        <time>2026-05-15T10:52:27Z</time>
      </trkpt>
      <trkpt lat="49.30771" lon="-0.71244">
        <ele>30.42</ele>
        <time>2026-05-15T10:52:45Z</time>
      </trkpt>
      <trkpt lat="49.30772" lon="-0.71246">
        <ele>30.42</ele>
        <time>2026-05-15T10:53:15Z</time>
      </trkpt>
      <trkpt lat="49.30769" lon="-0.71242">
        <ele>30.42</ele>
        <time>2026-05-15T10:53:46Z</time>
      </trkpt>
      <trkpt lat="49.30756" lon="-0.71233">
        <ele>30.42</ele>
        <time>2026-05-15T10:54:04Z</time>
      </trkpt>
      <trkpt lat="49.30738" lon="-0.71218">
        <ele>30.42</ele>
        <time>2026-05-15T10:54:24Z</time>
      </trkpt>
      <trkpt lat="49.30729" lon="-0.71209">
        <ele>30.42</ele>
        <time>2026-05-15T10:54:43Z</time>
      </trkpt>
      <trkpt lat="49.30707" lon="-0.7119">
        <ele>29.94</ele>
        <time>2026-05-15T10:55:04Z</time>
      </trkpt>
      <trkpt lat="49.30687" lon="-0.71171">
        <ele>29.94</ele>
        <time>2026-05-15T10:55:24Z</time>
      </trkpt>
      <trkpt lat="49.30665" lon="-0.71151">
        <ele>29.94</ele>
        <time>2026-05-15T10:55:44Z</time>
      </trkpt>
      <trkpt lat="49.30648" lon="-0.71132">
        <ele>28.98</ele>
        <time>2026-05-15T10:56:01Z</time>
      </trkpt>
      <trkpt lat="49.30626" lon="-0.71117">
        <ele>28.5</ele>
        <time>2026-05-15T10:56:22Z</time>
      </trkpt>
      <trkpt lat="49.30602" lon="-0.71104">
        <ele>28.5</ele>
        <time>2026-05-15T10:56:41Z</time>
      </trkpt>
      <trkpt lat="49.3059" lon="-0.71094">
        <ele>28.5</ele>
        <time>2026-05-15T10:56:54Z</time>
      </trkpt>
      <trkpt lat="49.30582" lon="-0.71075">
        <ele>28.02</ele>
        <time>2026-05-15T10:57:08Z</time>
      </trkpt>
      <trkpt lat="49.30575" lon="-0.71041">
        <ele>27.53</ele>
        <time>2026-05-15T10:57:28Z</time>
      </trkpt>
      <trkpt lat="49.30568" lon="-0.7101">
        <ele>27.05</ele>
        <time>2026-05-15T10:57:47Z</time>
      </trkpt>
      <trkpt lat="49.30557" lon="-0.70985">
        <ele>27.05</ele>
        <time>2026-05-15T10:58:05Z</time>
      </trkpt>
      <trkpt lat="49.30543" lon="-0.70965">
        <ele>27.05</ele>
        <time>2026-05-15T10:58:23Z</time>
      </trkpt>
      <trkpt lat="49.3053" lon="-0.70945">
        <ele>27.05</ele>
        <time>2026-05-15T10:58:40Z</time>
      </trkpt>
      <trkpt lat="49.30517" lon="-0.70925">
        <ele>26.57</ele>
        <time>2026-05-15T10:58:58Z</time>
      </trkpt>
      <trkpt lat="49.30496" lon="-0.70908">
        <ele>26.57</ele>
        <time>2026-05-15T10:59:17Z</time>
      </trkpt>
      <trkpt lat="49.3048" lon="-0.70896">
        <ele>26.57</ele>
        <time>2026-05-15T10:59:35Z</time>
      </trkpt>
      <trkpt lat="49.30461" lon="-0.70885">
        <ele>28.02</ele>
        <time>2026-05-15T10:59:53Z</time>
      </trkpt>
      <trkpt lat="49.30451" lon="-0.70876">
        <ele>28.5</ele>
        <time>2026-05-15T11:00:06Z</time>
      </trkpt>
      <trkpt lat="49.30433" lon="-0.70867">
        <ele>28.98</ele>
        <time>2026-05-15T11:00:25Z</time>
      </trkpt>
      <trkpt lat="49.30423" lon="-0.70859">
        <ele>28.98</ele>
        <time>2026-05-15T11:00:38Z</time>
      </trkpt>
      <trkpt lat="49.30429" lon="-0.70846">
        <ele>28.98</ele>
        <time>2026-05-15T11:00:48Z</time>
      </trkpt>
      <trkpt lat="49.30435" lon="-0.70829">
        <ele>28.98</ele>
        <time>2026-05-15T11:01:03Z</time>
      </trkpt>
      <trkpt lat="49.30447" lon="-0.70809">
        <ele>28.98</ele>
        <time>2026-05-15T11:01:20Z</time>
      </trkpt>
      <trkpt lat="49.3046" lon="-0.70787">
        <ele>27.53</ele>
        <time>2026-05-15T11:01:38Z</time>
      </trkpt>
      <trkpt lat="49.30464" lon="-0.70781">
        <ele>27.05</ele>
        <time>2026-05-15T11:01:43Z</time>
      </trkpt>
      <trkpt lat="49.30477" lon="-0.7076">
        <ele>26.09</ele>
        <time>2026-05-15T11:02:00Z</time>
      </trkpt>
      <trkpt lat="49.30484" lon="-0.70744">
        <ele>26.09</ele>
        <time>2026-05-15T11:02:13Z</time>
      </trkpt>
      <trkpt lat="49.30473" lon="-0.70725">
        <ele>26.09</ele>
        <time>2026-05-15T11:02:28Z</time>
      </trkpt>
      <trkpt lat="49.30472" lon="-0.70702">
        <ele>25.61</ele>
        <time>2026-05-15T11:02:44Z</time>
      </trkpt>
      <trkpt lat="49.30472" lon="-0.707">
        <ele>25.61</ele>
        <time>2026-05-15T11:02:45Z</time>
      </trkpt>
      <trkpt lat="49.30464" lon="-0.70678">
        <ele>25.61</ele>
        <time>2026-05-15T11:03:03Z</time>
      </trkpt>
      <trkpt lat="49.30463" lon="-0.70671">
        <ele>25.61</ele>
        <time>2026-05-15T11:03:18Z</time>
      </trkpt>
      <trkpt lat="49.3046" lon="-0.70667">
        <ele>25.61</ele>
        <time>2026-05-15T11:03:49Z</time>
      </trkpt>
      <trkpt lat="49.30458" lon="-0.70642">
        <ele>25.61</ele>
        <time>2026-05-15T11:04:05Z</time>
      </trkpt>
      <trkpt lat="49.30459" lon="-0.70626">
        <ele>25.61</ele>
        <time>2026-05-15T11:04:15Z</time>
      </trkpt>
      <trkpt lat="49.30452" lon="-0.70594">
        <ele>25.61</ele>
        <time>2026-05-15T11:04:34Z</time>
      </trkpt>
      <trkpt lat="49.30443" lon="-0.70578">
        <ele>25.61</ele>
        <time>2026-05-15T11:04:47Z</time>
      </trkpt>
      <trkpt lat="49.3044" lon="-0.7057">
        <ele>25.61</ele>
        <time>2026-05-15T11:04:53Z</time>
      </trkpt>
      <trkpt lat="49.30436" lon="-0.70552">
        <ele>27.05</ele>
        <time>2026-05-15T11:05:05Z</time>
      </trkpt>
      <trkpt lat="49.30431" lon="-0.7053">
        <ele>27.05</ele>
        <time>2026-05-15T11:05:21Z</time>
      </trkpt>
      <trkpt lat="49.30437" lon="-0.70516">
        <ele>27.05</ele>
        <time>2026-05-15T11:05:37Z</time>
      </trkpt>
      <trkpt lat="49.30444" lon="-0.70512">
        <ele>27.05</ele>
        <time>2026-05-15T11:05:54Z</time>
      </trkpt>
      <trkpt lat="49.30448" lon="-0.70505">
        <ele>27.05</ele>
        <time>2026-05-15T11:06:11Z</time>
      </trkpt>
      <trkpt lat="49.30448" lon="-0.705">
        <ele>27.05</ele>
        <time>2026-05-15T11:06:43Z</time>
      </trkpt>
      <trkpt lat="49.30448" lon="-0.70492">
        <ele>27.53</ele>
        <time>2026-05-15T11:06:50Z</time>
      </trkpt>
      <trkpt lat="49.30456" lon="-0.70474">
        <ele>28.5</ele>
        <time>2026-05-15T11:07:08Z</time>
      </trkpt>
      <trkpt lat="49.30458" lon="-0.70461">
        <ele>28.5</ele>
        <time>2026-05-15T11:07:21Z</time>
      </trkpt>
      <trkpt lat="49.30455" lon="-0.70449">
        <ele>28.98</ele>
        <time>2026-05-15T11:07:36Z</time>
      </trkpt>
      <trkpt lat="49.30457" lon="-0.70449">
        <ele>28.98</ele>
        <time>2026-05-15T11:08:01Z</time>
      </trkpt>
      <trkpt lat="49.30455" lon="-0.70448">
        <ele>28.98</ele>
        <time>2026-05-15T11:08:24Z</time>
      </trkpt>
      <trkpt lat="49.30454" lon="-0.70443">
        <ele>28.98</ele>
        <time>2026-05-15T11:08:40Z</time>
      </trkpt>
      <trkpt lat="49.30456" lon="-0.70448">
        <ele>29.46</ele>
        <time>2026-05-15T11:09:11Z</time>
      </trkpt>
      <trkpt lat="49.30451" lon="-0.70441">
        <ele>28.02</ele>
        <time>2026-05-15T11:09:46Z</time>
      </trkpt>
      <trkpt lat="49.30449" lon="-0.70443">
        <ele>28.5</ele>
        <time>2026-05-15T11:10:29Z</time>
      </trkpt>
    </trkseg>
  </trk>
</gpx>